createdAt,value
2022-12-31T00:00:46.560Z,89.83
2022-12-31T00:03:13.488Z,89.99
2022-12-31T00:05:40.311Z,90.41
2022-12-31T00:08:06.932Z,90.96
2022-12-31T00:10:35.285Z,91.62
2022-12-31T00:13:02.068Z,91.82
2022-12-31T00:15:28.880Z,91.38
2022-12-31T00:17:55.423Z,91.16
2022-12-31T00:20:22.018Z,91.05
2022-12-31T00:22:48.518Z,90.91
2022-12-31T00:25:15.284Z,91.50
2022-12-31T00:27:43.175Z,91.59
2022-12-31T00:30:10.976Z,91.88
2022-12-31T00:32:37.515Z,91.95
2022-12-31T00:35:04.954Z,91.96
2022-12-31T00:37:31.501Z,92.15
2022-12-31T00:39:58.242Z,93.32
2022-12-31T00:42:24.837Z,93.09
2022-12-31T00:44:52.823Z,92.79
2022-12-31T00:47:19.367Z,92.24
2022-12-31T00:49:45.947Z,91.50
2022-12-31T00:52:12.527Z,92.57
2022-12-31T00:54:39.202Z,92.31
2022-12-31T00:57:05.728Z,92.37
2022-12-31T00:59:32.304Z,91.70
2022-12-31T01:02:00.384Z,91.38
2022-12-31T01:04:27.156Z,90.87
2022-12-31T01:06:53.738Z,91.12
2022-12-31T01:09:20.319Z,90.65
2022-12-31T01:11:49.649Z,90.45
2022-12-31T01:14:18.547Z,89.09
2022-12-31T01:16:46.887Z,88.62
2022-12-31T01:19:17.449Z,87.68
2022-12-31T01:21:45.657Z,86.96
2022-12-31T01:24:13.135Z,86.72
2022-12-31T01:26:40.328Z,86.01
2022-12-31T01:29:07.869Z,85.71
2022-12-31T01:31:35.320Z,85.41
2022-12-31T01:34:02.308Z,84.65
2022-12-31T01:36:32.864Z,84.94
2022-12-31T01:39:01.188Z,84.45
2022-12-31T01:41:29.788Z,84.33
2022-12-31T01:43:59.609Z,84.19
2022-12-31T01:46:33.522Z,83.62
2022-12-31T01:49:03.229Z,82.98
2022-12-31T01:51:33.706Z,82.83
2022-12-31T01:54:02.648Z,82.85
2022-12-31T01:56:29.335Z,82.54
2022-12-31T01:58:57.482Z,82.22
2022-12-31T02:01:27.813Z,82.57
2022-12-31T02:03:56.331Z,82.39
2022-12-31T02:06:28.908Z,82.47
2022-12-31T02:08:58.247Z,82.28
2022-12-31T02:11:29.604Z,82.20
2022-12-31T02:14:00.472Z,81.83
2022-12-31T02:16:34.987Z,81.87
2022-12-31T02:19:15.486Z,81.50
2022-12-31T02:21:57.731Z,81.37
2022-12-31T02:24:38.802Z,80.82
2022-12-31T02:27:10.486Z,80.68
2022-12-31T02:29:57.636Z,80.75
2022-12-31T02:32:35.485Z,80.17
2022-12-31T02:35:08.204Z,79.56
2022-12-31T02:37:37.675Z,79.36
2022-12-31T02:40:07.713Z,79.13
2022-12-31T02:42:34.397Z,78.57
2022-12-31T02:45:01.178Z,78.77
2022-12-31T02:47:43.320Z,77.62
2022-12-31T02:50:27.624Z,77.76
2022-12-31T02:53:03.563Z,77.45
2022-12-31T02:55:38.220Z,77.56
2022-12-31T02:58:13.262Z,77.41
2022-12-31T03:00:45.087Z,77.35
2022-12-31T03:03:13.344Z,77.37
2022-12-31T03:05:43.146Z,77.44
2022-12-31T03:08:09.798Z,77.09
2022-12-31T03:10:36.899Z,77.00
2022-12-31T03:13:03.790Z,76.93
2022-12-31T03:15:32.555Z,77.14
2022-12-31T03:18:01.805Z,77.02
2022-12-31T03:20:32.870Z,76.44
2022-12-31T03:22:59.874Z,76.75
2022-12-31T03:25:26.505Z,76.78
2022-12-31T03:27:53.467Z,76.44
2022-12-31T03:30:22.187Z,76.24
2022-12-31T03:32:50.202Z,76.57
2022-12-31T03:35:19.047Z,76.91
2022-12-31T03:37:47.902Z,76.74
2022-12-31T03:40:15.630Z,76.60
2022-12-31T03:42:42.536Z,77.22
2022-12-31T03:45:10.705Z,76.91
2022-12-31T03:47:37.420Z,77.29
2022-12-31T03:50:05.333Z,76.90
2022-12-31T03:52:31.998Z,77.17
2022-12-31T03:55:00.418Z,76.82
2022-12-31T03:57:27.164Z,76.90
2022-12-31T03:59:53.696Z,76.77
2022-12-31T04:02:26.312Z,76.56
2022-12-31T04:04:55.073Z,76.41
2022-12-31T04:07:21.621Z,76.82
2022-12-31T04:09:48.232Z,76.19
2022-12-31T04:12:16.192Z,76.44
2022-12-31T04:14:42.818Z,76.60
2022-12-31T04:17:09.525Z,76.86
2022-12-31T04:19:36.104Z,76.76
2022-12-31T04:22:02.653Z,76.57
2022-12-31T04:24:29.327Z,76.37
2022-12-31T04:26:57.857Z,76.46
2022-12-31T04:29:27.568Z,76.27
2022-12-31T04:31:54.552Z,76.12
2022-12-31T04:34:21.552Z,76.19
2022-12-31T04:36:48.115Z,76.21
2022-12-31T04:39:14.851Z,76.31
2022-12-31T04:41:41.408Z,76.23
2022-12-31T04:44:09.199Z,76.37
2022-12-31T04:46:37.082Z,76.07
2022-12-31T04:49:03.895Z,76.12
2022-12-31T04:51:31.461Z,76.03
2022-12-31T04:53:58.743Z,76.29
2022-12-31T04:56:26.626Z,76.23
2022-12-31T04:58:53.669Z,75.96
2022-12-31T05:01:21.011Z,75.64
2022-12-31T05:03:49.371Z,75.44
2022-12-31T05:06:17.570Z,75.49
2022-12-31T05:08:45.000Z,75.61
2022-12-31T05:11:12.243Z,75.35
2022-12-31T05:13:39.277Z,74.80
2022-12-31T05:16:07.258Z,74.99
2022-12-31T05:18:34.582Z,74.69
2022-12-31T05:21:02.757Z,74.34
2022-12-31T05:23:29.559Z,74.45
2022-12-31T05:25:57.030Z,74.19
2022-12-31T05:28:23.625Z,74.02
2022-12-31T05:30:50.596Z,73.54
2022-12-31T05:33:17.698Z,73.43
2022-12-31T05:35:44.730Z,73.51
2022-12-31T05:38:13.017Z,73.25
2022-12-31T05:40:39.610Z,72.90
2022-12-31T05:43:06.574Z,72.66
2022-12-31T05:45:33.110Z,72.19
2022-12-31T05:47:59.751Z,72.54
2022-12-31T05:50:26.341Z,72.06
2022-12-31T05:52:56.353Z,72.00
2022-12-31T05:55:24.506Z,72.13
2022-12-31T05:57:51.151Z,71.77
2022-12-31T06:00:17.980Z,71.78
2022-12-31T06:02:45.392Z,71.46
2022-12-31T06:05:12.713Z,71.64
2022-12-31T06:07:39.346Z,71.53
2022-12-31T06:10:06.805Z,71.37
2022-12-31T06:12:34.914Z,71.29
2022-12-31T06:15:01.617Z,71.54
2022-12-31T06:17:29.747Z,71.14
2022-12-31T06:19:56.271Z,71.27
2022-12-31T06:22:22.896Z,71.49
2022-12-31T06:24:49.543Z,71.48
2022-12-31T06:27:16.112Z,71.79
2022-12-31T06:29:44.161Z,71.03
2022-12-31T06:32:10.702Z,71.08
2022-12-31T06:34:37.230Z,71.37
2022-12-31T06:37:03.751Z,71.27
2022-12-31T06:39:30.311Z,70.96
2022-12-31T06:41:56.890Z,70.95
2022-12-31T06:44:23.455Z,71.27
2022-12-31T06:46:51.444Z,70.83
2022-12-31T06:49:18.322Z,71.21
2022-12-31T06:51:45.272Z,71.05
2022-12-31T06:54:12.143Z,70.73
2022-12-31T06:56:39.509Z,71.01
2022-12-31T06:59:06.539Z,71.06
2022-12-31T07:01:49.203Z,70.44
2022-12-31T07:04:41.592Z,70.33
2022-12-31T07:07:16.972Z,70.55
2022-12-31T07:09:55.050Z,70.54
2022-12-31T07:12:36.114Z,69.79
2022-12-31T07:15:11.129Z,70.35
2022-12-31T07:17:47.777Z,70.04
2022-12-31T07:20:18.243Z,69.84
2022-12-31T07:22:45.743Z,70.04
2022-12-31T07:25:14.638Z,69.54
2022-12-31T07:28:02.592Z,70.09
2022-12-31T07:30:39.731Z,69.93
2022-12-31T07:33:29.955Z,69.74
2022-12-31T07:36:07.989Z,69.50
2022-12-31T07:38:40.401Z,69.62
2022-12-31T07:41:16.164Z,69.31
2022-12-31T07:43:56.080Z,68.82
2022-12-31T07:46:28.536Z,68.64
2022-12-31T07:48:55.801Z,68.73
2022-12-31T07:51:24.451Z,68.69
2022-12-31T07:53:51.052Z,68.37
2022-12-31T07:56:17.665Z,68.78
2022-12-31T07:59:07.879Z,68.41
2022-12-31T08:01:41.603Z,68.52
2022-12-31T08:04:17.999Z,68.35
2022-12-31T08:06:54.061Z,67.89
2022-12-31T08:09:32.129Z,67.61
2022-12-31T08:12:01.081Z,67.88
2022-12-31T08:14:29.337Z,67.90
2022-12-31T08:16:57.191Z,67.58
2022-12-31T08:19:26.032Z,67.69
2022-12-31T08:22:09.533Z,67.14
2022-12-31T08:24:47.647Z,66.92
2022-12-31T08:27:23.774Z,67.35
2022-12-31T08:29:59.029Z,67.47
2022-12-31T08:32:32.515Z,66.88
2022-12-31T08:35:06.313Z,66.98
2022-12-31T08:37:38.951Z,66.84
2022-12-31T08:40:16.134Z,66.53
2022-12-31T08:42:59.850Z,66.56
2022-12-31T08:45:31.863Z,66.48
2022-12-31T08:48:02.932Z,66.57
2022-12-31T08:50:30.263Z,66.45
2022-12-31T08:52:59.168Z,66.67
2022-12-31T08:55:26.467Z,66.35
2022-12-31T08:58:08.373Z,66.73
2022-12-31T09:00:36.892Z,66.69
2022-12-31T09:03:29.851Z,66.78
2022-12-31T09:06:04.614Z,66.27
2022-12-31T09:08:47.344Z,66.40
2022-12-31T09:11:23.211Z,66.29
2022-12-31T09:14:19.473Z,66.43
2022-12-31T09:17:00.374Z,66.42
2022-12-31T09:19:27.316Z,66.82
2022-12-31T09:21:54.717Z,66.85
2022-12-31T09:24:23.589Z,66.31
2022-12-31T09:27:00.856Z,66.59
2022-12-31T09:29:39.900Z,66.21
2022-12-31T09:32:17.248Z,66.60
2022-12-31T09:34:52.993Z,66.45
2022-12-31T09:37:36.153Z,66.30
2022-12-31T09:40:28.370Z,66.47
2022-12-31T09:43:20.367Z,65.86
2022-12-31T09:46:09.816Z,65.76
2022-12-31T09:48:58.090Z,66.26
2022-12-31T09:51:30.393Z,66.22
2022-12-31T09:54:16.430Z,65.96
2022-12-31T09:56:52.937Z,66.03
2022-12-31T09:59:30.552Z,65.50
2022-12-31T10:02:02.984Z,65.73
2022-12-31T10:04:52.495Z,65.61
2022-12-31T10:07:31.714Z,65.68
2022-12-31T10:10:06.481Z,65.74
2022-12-31T10:13:22.032Z,65.62
2022-12-31T10:16:11.816Z,65.50
2022-12-31T10:18:54.357Z,65.48
2022-12-31T10:21:40.252Z,65.64
2022-12-31T10:24:28.728Z,65.48
2022-12-31T10:27:10.867Z,65.55
2022-12-31T10:29:45.168Z,65.44
2022-12-31T10:32:19.014Z,65.00
2022-12-31T10:35:00.811Z,65.30
2022-12-31T10:37:31.392Z,65.34
2022-12-31T10:40:15.746Z,64.47
2022-12-31T10:43:28.290Z,64.68
2022-12-31T10:46:41.546Z,64.76
2022-12-31T10:49:35.178Z,64.14
2022-12-31T10:52:38.199Z,63.94
2022-12-31T10:55:47.877Z,63.99
2022-12-31T10:58:48.869Z,63.68
2022-12-31T11:01:26.173Z,63.80
2022-12-31T11:04:27.983Z,63.55
2022-12-31T11:07:24.038Z,62.97
2022-12-31T11:10:13.293Z,62.64
2022-12-31T11:13:02.628Z,62.89
2022-12-31T11:15:59.644Z,62.70
2022-12-31T11:18:36.391Z,62.82
2022-12-31T11:21:16.205Z,63.25
2022-12-31T11:23:52.329Z,62.98
2022-12-31T11:26:29.970Z,63.19
2022-12-31T11:29:13.912Z,62.94
2022-12-31T11:32:01.565Z,62.67
2022-12-31T11:34:59.374Z,63.05
2022-12-31T11:37:40.742Z,63.27
2022-12-31T11:40:33.640Z,62.28
2022-12-31T11:43:04.644Z,62.70
2022-12-31T11:45:51.498Z,62.26
2022-12-31T11:48:30.643Z,62.54
2022-12-31T11:51:15.153Z,62.94
2022-12-31T11:54:09.603Z,62.86
2022-12-31T11:56:40.413Z,62.56
2022-12-31T11:59:15.737Z,63.16
2022-12-31T12:01:55.076Z,63.21
2022-12-31T12:04:21.807Z,62.41
2022-12-31T12:06:50.203Z,62.79
2022-12-31T12:09:28.857Z,62.95
2022-12-31T12:11:59.681Z,62.98
2022-12-31T12:14:32.000Z,62.56
2022-12-31T12:17:05.088Z,62.97
2022-12-31T12:19:34.754Z,62.89
2022-12-31T12:22:12.441Z,62.57
2022-12-31T12:24:39.326Z,62.73
2022-12-31T12:27:21.078Z,62.11
2022-12-31T12:29:48.725Z,62.56
2022-12-31T12:32:20.390Z,62.42
2022-12-31T12:34:49.968Z,62.77
2022-12-31T12:37:30.170Z,62.68
2022-12-31T12:39:58.666Z,62.20
2022-12-31T12:42:25.335Z,62.22
2022-12-31T12:45:01.580Z,62.34
2022-12-31T12:47:28.793Z,62.97
2022-12-31T12:49:55.786Z,62.53
2022-12-31T12:52:48.237Z,62.18
2022-12-31T12:55:20.952Z,62.48
2022-12-31T12:57:57.757Z,62.08
2022-12-31T13:00:29.434Z,62.81
2022-12-31T13:03:29.336Z,62.22
2022-12-31T13:06:21.283Z,62.60
2022-12-31T13:09:06.531Z,62.24
2022-12-31T13:11:40.683Z,62.04
2022-12-31T13:14:18.703Z,62.67
2022-12-31T13:16:53.262Z,64.22
2022-12-31T13:19:29.082Z,64.02
2022-12-31T13:22:03.193Z,63.93
2022-12-31T13:24:46.413Z,64.57
2022-12-31T13:27:18.993Z,63.77
2022-12-31T13:29:48.047Z,63.93
2022-12-31T13:32:18.706Z,63.50
2022-12-31T13:34:48.474Z,63.32
2022-12-31T13:37:25.588Z,62.56
2022-12-31T13:39:59.556Z,62.96
2022-12-31T13:42:34.813Z,63.32
2022-12-31T13:45:04.278Z,62.96
2022-12-31T13:47:35.706Z,62.55
2022-12-31T13:50:14.184Z,62.19
2022-12-31T13:52:48.553Z,62.45
2022-12-31T13:55:21.277Z,61.84
2022-12-31T13:57:52.647Z,62.13
2022-12-31T14:00:22.762Z,62.04
2022-12-31T14:02:59.171Z,62.01
2022-12-31T14:05:32.135Z,61.74
2022-12-31T14:08:01.006Z,62.49
2022-12-31T14:10:40.308Z,61.98
2022-12-31T14:13:20.411Z,62.11
2022-12-31T14:15:56.711Z,62.30
2022-12-31T14:18:31.143Z,62.61
2022-12-31T14:21:07.010Z,62.65
2022-12-31T14:23:39.957Z,62.08
2022-12-31T14:26:15.053Z,62.43
2022-12-31T14:28:47.667Z,61.83
2022-12-31T14:31:27.001Z,61.64
2022-12-31T14:34:03.616Z,61.91
2022-12-31T14:36:40.568Z,61.29
2022-12-31T14:39:29.120Z,61.50
2022-12-31T14:42:09.026Z,61.81
2022-12-31T14:44:48.862Z,61.46
2022-12-31T14:47:27.219Z,60.98
2022-12-31T14:50:03.321Z,61.50
2022-12-31T14:52:32.031Z,60.90
2022-12-31T14:55:00.830Z,60.76
2022-12-31T14:57:54.343Z,60.53
2022-12-31T15:00:29.068Z,60.43
2022-12-31T15:02:57.652Z,60.57
2022-12-31T15:05:26.126Z,60.77
2022-12-31T15:08:12.956Z,60.68
2022-12-31T15:10:52.739Z,61.21
2022-12-31T15:13:37.206Z,60.31
2022-12-31T15:16:18.506Z,61.04
2022-12-31T15:19:10.797Z,60.73
2022-12-31T15:21:55.665Z,60.75
2022-12-31T15:24:25.019Z,61.25
2022-12-31T15:26:53.944Z,60.95
2022-12-31T15:29:28.462Z,61.02
2022-12-31T15:31:57.260Z,60.91
2022-12-31T15:34:26.861Z,61.30
2022-12-31T15:36:55.932Z,61.30
2022-12-31T15:39:26.005Z,61.75
2022-12-31T15:42:36.066Z,61.70
2022-12-31T15:44:48.760Z,61.98
2022-12-31T15:47:20.625Z,62.35
2022-12-31T15:49:47.947Z,62.26
2022-12-31T15:52:20.794Z,62.45
2022-12-31T15:54:50.363Z,62.80
2022-12-31T15:57:20.663Z,62.74
2022-12-31T15:59:48.713Z,63.35
2022-12-31T16:02:21.005Z,62.96
2022-12-31T16:04:48.735Z,63.13
2022-12-31T16:07:15.883Z,63.31
2022-12-31T16:09:43.124Z,63.59
2022-12-31T16:12:12.068Z,63.72
2022-12-31T16:14:42.348Z,63.48
2022-12-31T16:17:26.243Z,63.53
2022-12-31T16:19:52.898Z,63.58
2022-12-31T16:22:26.245Z,63.62
2022-12-31T16:27:40.604Z,64.32
2022-12-31T16:30:18.809Z,64.57
2022-12-31T16:32:48.402Z,64.75
2022-12-31T16:35:24.064Z,64.69
2022-12-31T16:38:01.271Z,65.30
2022-12-31T16:40:28.182Z,64.98
2022-12-31T16:42:54.684Z,64.89
2022-12-31T16:45:31.193Z,64.69
2022-12-31T16:48:07.832Z,65.32
2022-12-31T16:50:37.932Z,64.00
2022-12-31T16:53:06.530Z,64.07
2022-12-31T16:55:34.481Z,64.31
2022-12-31T16:58:06.907Z,63.91
2022-12-31T17:00:34.920Z,63.61
2022-12-31T17:03:09.068Z,63.50
2022-12-31T17:05:55.274Z,63.14
2022-12-31T17:08:24.789Z,63.64
2022-12-31T17:10:51.348Z,63.32
2022-12-31T17:13:29.417Z,63.12
2022-12-31T17:15:57.625Z,63.07
2022-12-31T17:18:28.518Z,63.15
2022-12-31T17:21:04.073Z,63.08
2022-12-31T17:23:34.603Z,62.13
2022-12-31T17:26:13.566Z,61.91
2022-12-31T17:28:44.933Z,62.02
2022-12-31T17:31:34.053Z,63.22
2022-12-31T17:34:22.090Z,62.19
2022-12-31T17:36:56.875Z,62.16
2022-12-31T17:39:24.317Z,61.92
2022-12-31T17:41:55.430Z,61.53
2022-12-31T17:44:26.028Z,61.64
2022-12-31T17:46:53.460Z,60.57
2022-12-31T17:49:24.761Z,59.85
2022-12-31T17:51:51.359Z,60.06
2022-12-31T17:54:19.042Z,60.06
2022-12-31T17:56:46.159Z,61.07
2022-12-31T17:59:16.699Z,60.69
2022-12-31T18:01:43.738Z,61.18
2022-12-31T18:04:12.133Z,61.11
2022-12-31T18:06:40.255Z,62.12
2022-12-31T18:09:06.939Z,61.75
2022-12-31T18:11:35.896Z,62.21
2022-12-31T18:14:02.510Z,62.19
2022-12-31T18:16:29.187Z,62.23
2022-12-31T18:18:58.503Z,62.41
2022-12-31T18:21:29.005Z,62.06
2022-12-31T18:26:24.209Z,62.23
2022-12-31T18:28:51.489Z,62.31
2022-12-31T18:31:20.973Z,62.18
2022-12-31T18:33:49.044Z,61.81
2022-12-31T18:36:17.494Z,61.75
2022-12-31T18:38:44.067Z,61.69
2022-12-31T18:41:16.696Z,60.98
2022-12-31T18:43:43.948Z,61.73
2022-12-31T18:46:13.101Z,61.02
2022-12-31T18:48:39.876Z,60.16
2022-12-31T18:51:06.409Z,60.32
2022-12-31T18:53:33.016Z,59.45
2022-12-31T18:55:59.540Z,59.44
2022-12-31T18:58:27.715Z,58.54
2022-12-31T19:00:54.482Z,58.30
2022-12-31T19:03:24.217Z,58.66
2022-12-31T19:05:51.501Z,59.01
2022-12-31T19:08:18.386Z,58.16
2022-12-31T19:10:45.519Z,57.00
2022-12-31T19:13:13.302Z,56.47
2022-12-31T19:15:43.521Z,55.67
2022-12-31T19:18:10.348Z,55.62
2022-12-31T19:20:38.051Z,54.13
2022-12-31T19:23:04.971Z,54.02
2022-12-31T19:25:33.534Z,53.72
2022-12-31T19:28:00.731Z,53.06
2022-12-31T19:30:29.589Z,52.99
2022-12-31T19:32:57.692Z,52.85
2022-12-31T19:35:24.837Z,53.75
2022-12-31T19:37:53.676Z,52.74
2022-12-31T19:40:23.229Z,52.40
2022-12-31T19:42:51.014Z,52.81
2022-12-31T19:45:19.300Z,53.08
2022-12-31T19:47:46.739Z,53.48
2022-12-31T19:50:18.156Z,53.00
2022-12-31T19:52:46.388Z,53.08
2022-12-31T19:55:15.523Z,53.19
2022-12-31T19:57:42.850Z,54.22
2022-12-31T20:00:11.209Z,52.83
2022-12-31T20:02:41.375Z,52.59
2022-12-31T20:05:08.741Z,52.28
2022-12-31T20:07:37.166Z,51.76
2022-12-31T20:10:05.269Z,52.09
2022-12-31T20:12:32.373Z,52.56
2022-12-31T20:14:58.983Z,52.39
2022-12-31T20:17:25.678Z,52.69
2022-12-31T20:19:52.246Z,52.62
2022-12-31T20:22:19.280Z,52.34
2022-12-31T20:24:47.185Z,51.62
2022-12-31T20:27:18.468Z,52.08
2022-12-31T20:29:45.365Z,51.77
2022-12-31T20:32:11.907Z,51.89
2022-12-31T20:34:38.502Z,51.79
2022-12-31T20:37:05.029Z,51.49
2022-12-31T20:39:32.499Z,51.18
2022-12-31T20:42:00.396Z,50.94
2022-12-31T20:44:27.196Z,50.48
2022-12-31T20:46:53.926Z,50.27
2022-12-31T20:49:37.258Z,50.36
2022-12-31T20:52:07.092Z,50.68
2022-12-31T20:54:33.627Z,50.05
2022-12-31T20:57:01.541Z,50.18
2022-12-31T20:59:28.038Z,50.34
2022-12-31T21:02:20.489Z,50.49
2022-12-31T21:04:41.505Z,49.92
2022-12-31T21:07:08.172Z,49.45
2022-12-31T21:09:35.010Z,49.57
2022-12-31T21:12:02.859Z,49.84
2022-12-31T21:14:29.463Z,49.59
2022-12-31T21:16:55.951Z,49.53
2022-12-31T21:19:22.588Z,50.22
2022-12-31T21:21:49.121Z,50.31
2022-12-31T21:24:21.766Z,50.45
2022-12-31T21:26:50.330Z,50.03
2022-12-31T21:29:18.240Z,50.00
2022-12-31T21:31:44.805Z,50.18
2022-12-31T21:34:11.505Z,50.00
2022-12-31T21:36:38.108Z,49.99
2022-12-31T21:39:04.820Z,50.49
2022-12-31T21:41:33.651Z,49.96
2022-12-31T21:44:01.444Z,50.35
2022-12-31T21:46:29.457Z,49.78
2022-12-31T21:48:56.671Z,50.37
2022-12-31T21:51:23.483Z,50.50
2022-12-31T21:53:50.168Z,50.92
2022-12-31T21:56:17.087Z,50.12
2022-12-31T21:58:45.597Z,50.23
2022-12-31T22:01:17.189Z,49.94
2022-12-31T22:03:45.423Z,50.08
2022-12-31T22:06:14.423Z,49.75
2022-12-31T22:08:43.148Z,49.82
2022-12-31T22:11:10.989Z,49.90
2022-12-31T22:13:38.351Z,49.66
2022-12-31T22:16:06.286Z,50.08
2022-12-31T22:18:34.076Z,50.01
2022-12-31T22:21:04.459Z,49.87
2022-12-31T22:23:32.361Z,50.52
2022-12-31T22:25:59.286Z,50.05
2022-12-31T22:28:41.378Z,50.05
2022-12-31T22:31:12.307Z,49.45
2022-12-31T22:33:38.913Z,49.58
2022-12-31T22:36:10.580Z,49.62
2022-12-31T22:38:37.044Z,49.78
2022-12-31T22:41:05.744Z,49.71
2022-12-31T22:43:34.239Z,50.36
2022-12-31T22:46:06.275Z,49.67
2022-12-31T22:48:32.912Z,49.32
2022-12-31T22:50:59.512Z,50.07
2022-12-31T22:53:27.683Z,50.41
2022-12-31T22:55:54.563Z,49.44
2022-12-31T22:58:21.345Z,49.83
2022-12-31T23:00:48.014Z,50.04
2022-12-31T23:03:14.783Z,49.62
2022-12-31T23:05:41.399Z,49.46
2022-12-31T23:08:18.687Z,49.13
2022-12-31T23:10:50.211Z,49.15
2022-12-31T23:13:16.758Z,49.56
2022-12-31T23:15:44.533Z,49.31
2022-12-31T23:18:11.081Z,49.35
2022-12-31T23:20:38.032Z,49.09
2022-12-31T23:23:05.671Z,49.54
2022-12-31T23:25:33.073Z,48.64
2022-12-31T23:28:01.526Z,49.25
2022-12-31T23:30:28.377Z,48.54
2022-12-31T23:32:55.020Z,48.65
2022-12-31T23:35:22.036Z,49.31
2022-12-31T23:37:48.618Z,49.41
2022-12-31T23:40:20.956Z,48.39
2022-12-31T23:42:48.413Z,48.53
2022-12-31T23:45:16.585Z,48.99
2022-12-31T23:47:43.230Z,48.71
2022-12-31T23:50:09.984Z,48.76
2022-12-31T23:52:36.532Z,48.54
2022-12-31T23:55:03.305Z,48.99
2022-12-31T23:57:29.895Z,48.63
2022-12-31T23:59:56.403Z,49.43
